Time;durP1;ratioP1;P1;durP2;ratioP2;P2;SDS_P1;SDS_P2;PMS_P1;PMS_P2;Temp;Humidity;BMP_temperature;BMP_pressure;BME280_temperature;BME280_humidity;BME280_pressure;Samples;Min_cycle;Max_cycle;Signal;HPM_P1;HPM_P2
2022/08/07 00:00:19;;;;;;;;;;;;;;;13.95;100.00;102709.00;2608441;36;19985;-50
2022/08/07 00:02:47;;;;;;;;;;;;;;;13.91;100.00;102704.78;2609963;36;19946;-51
2022/08/07 00:05:15;;;;;;;;;;;;;;;13.95;100.00;102705.44;2611419;31;19958;-51
2022/08/07 00:07:43;;;;;;;;;;;;;;;13.88;100.00;102715.84;2614567;36;19938;-48
2022/08/07 00:10:14;;;;;;;;;;;;;;;13.78;100.00;102703.97;2615334;36;20495;-49
2022/08/07 00:12:42;;;;;;;;;;;;;;;13.76;100.00;102705.94;2614814;36;19958;-48
2022/08/07 00:15:14;;;;;;;;;;;;;;;13.78;100.00;102704.84;2616788;54;19981;-46
2022/08/07 00:17:43;;;;;;;;;;;;;;;13.74;100.00;102702.47;2615160;36;19950;-46
2022/08/07 00:20:11;;;;;;;;;;;;;;;13.72;100.00;102701.72;2615622;31;19950;-45
2022/08/07 00:22:40;;;;;;;;;;;;;;;13.78;100.00;102693.13;2615796;36;19947;-47
2022/08/07 00:25:09;;;;;;;;;;;;;;;13.73;100.00;102690.78;2615926;36;20443;-47
2022/08/07 00:27:40;;;;;;;;;;;;;;;13.65;100.00;102691.34;2614168;36;20371;-52
2022/08/07 00:30:08;;;;;;;;;;;;;;;13.63;100.00;102692.41;2614768;36;19954;-51
2022/08/07 00:32:36;;;;;;;;;;;;;;;13.58;100.00;102692.75;2614235;36;19954;-49
2022/08/07 00:35:05;;;;;;;;;;;;;;;13.58;100.00;102691.91;2614815;31;19981;-47
2022/08/07 00:37:33;;;;;;;;;;;;;;;13.56;100.00;102685.72;2614615;36;19954;-47
2022/08/07 00:40:01;;;;;;;;;;;;;;;13.47;100.00;102690.84;2615522;36;19950;-48
2022/08/07 00:42:29;;;;;;;;;;;;;;;13.43;100.00;102688.47;2612919;36;19955;-50
2022/08/07 00:45:00;;;;;;;;;;;;;;;13.39;100.00;102689.66;2614207;31;19943;-51
2022/08/07 00:47:28;;;;;;;;;;;;;;;13.41;100.00;102684.97;2614140;36;19955;-48
2022/08/07 00:49:56;;;;;;;;;;;;;;;13.35;100.00;102677.31;2615217;31;19981;-49
2022/08/07 00:52:24;;;;;;;;;;;;;;;13.27;100.00;102678.69;2613799;31;20100;-47
2022/08/07 00:54:52;;;;;;;;;;;;;;;13.21;100.00;102679.13;2614367;36;20428;-47
2022/08/07 00:57:21;;;;;;;;;;;;;;;13.22;100.00;102674.56;2612197;36;19993;-46
2022/08/07 00:59:49;;;;;;;;;;;;;;;13.13;100.00;102685.09;2614284;36;19947;-51
2022/08/07 01:02:19;;;;;;;;;;;;;;;13.13;100.00;102679.69;2610944;36;19950;-46
2022/08/07 01:04:48;;;;;;;;;;;;;;;13.07;100.00;102668.41;2611788;36;20002;-47
2022/08/07 01:07:16;;;;;;;;;;;;;;;13.10;100.00;102676.31;2611973;36;20430;-46
2022/08/07 01:09:44;;;;;;;;;;;;;;;13.07;100.00;102672.00;2612092;36;20554;-47
2022/08/07 01:12:12;;;;;;;;;;;;;;;12.94;100.00;102676.50;2611686;31;19946;-49
2022/08/07 01:14:40;;;;;;;;;;;;;;;12.92;100.00;102679.31;2611682;36;20398;-47
2022/08/07 01:17:08;;;;;;;;;;;;;;;12.87;100.00;102676.09;2610913;36;20447;-51
2022/08/07 01:19:39;;;;;;;;;;;;;;;12.89;100.00;102671.44;2611260;36;20445;-47
2022/08/07 01:22:10;;;;;;;;;;;;;;;12.91;100.00;102672.22;2612775;31;19954;-48
2022/08/07 01:24:38;;;;;;;;;;;;;;;12.90;100.00;102670.47;2612289;36;20503;-46
2022/08/07 01:27:06;;;;;;;;;;;;;;;12.87;100.00;102670.69;2611126;36;19973;-49
2022/08/07 01:29:34;;;;;;;;;;;;;;;12.92;100.00;102673.06;2611067;36;19950;-48
2022/08/07 01:32:04;;;;;;;;;;;;;;;12.88;100.00;102675.13;2610904;36;20074;-47
2022/08/07 01:34:33;;;;;;;;;;;;;;;12.89;100.00;102674.13;2611640;36;19954;-47
2022/08/07 01:37:01;;;;;;;;;;;;;;;12.96;100.00;102672.75;2613578;36;19946;-49
2022/08/07 01:39:33;;;;;;;;;;;;;;;12.97;100.00;102681.75;2612055;36;19954;-49
2022/08/07 01:42:01;;;;;;;;;;;;;;;12.89;100.00;102676.84;2612564;36;19957;-49
2022/08/07 01:44:29;;;;;;;;;;;;;;;12.87;100.00;102670.69;2614178;31;20351;-48
2022/08/07 01:46:57;;;;;;;;;;;;;;;12.82;100.00;102667.44;2613067;36;19998;-49
2022/08/07 01:49:25;;;;;;;;;;;;;;;12.80;100.00;102667.53;2613300;31;20367;-48
2022/08/07 01:51:54;;;;;;;;;;;;;;;12.79;100.00;102673.03;2614595;36;20433;-48
2022/08/07 01:54:22;;;;;;;;;;;;;;;12.80;100.00;102667.53;2614191;36;20459;-49
2022/08/07 01:56:54;;;;;;;;;;;;;;;12.79;100.00;102664.94;2613781;36;19950;-46
2022/08/07 01:59:26;;;;;;;;;;;;;;;12.70;100.00;102662.88;2614031;36;19939;-47
2022/08/07 02:01:56;;;;;;;;;;;;;;;12.65;100.00;102665.91;2613706;36;19956;-50
2022/08/07 02:04:27;;;;;;;;;;;;;;;12.59;100.00;102661.78;2614351;36;19955;-46
2022/08/07 02:06:55;;;;;;;;;;;;;;;12.53;100.00;102664.91;2614473;36;19942;-47
2022/08/07 02:09:25;;;;;;;;;;;;;;;12.53;100.00;102661.31;2614615;36;19981;-47
2022/08/07 02:11:56;;;;;;;;;;;;;;;12.56;100.00;102655.75;2613859;54;20052;-49
2022/08/07 02:14:26;;;;;;;;;;;;;;;12.50;100.00;102643.53;2613408;36;20008;-47
2022/08/07 02:16:55;;;;;;;;;;;;;;;12.46;100.00;102647.38;2613663;36;20360;-46
2022/08/07 02:19:24;;;;;;;;;;;;;;;12.48;100.00;102647.28;2614465;36;19946;-46
2022/08/07 02:21:53;;;;;;;;;;;;;;;12.52;100.00;102646.13;2613954;31;19951;-47
2022/08/07 02:24:22;;;;;;;;;;;;;;;12.46;100.00;102644.69;2614197;36;19951;-47
2022/08/07 02:26:50;;;;;;;;;;;;;;;12.46;100.00;102643.84;2613966;36;19946;-47
2022/08/07 02:29:22;;;;;;;;;;;;;;;12.39;100.00;102649.63;2613036;36;19943;-47
2022/08/07 02:31:50;;;;;;;;;;;;;;;12.43;100.00;102647.59;2613738;36;19954;-48
2022/08/07 02:34:18;;;;;;;;;;;;;;;12.37;100.00;102651.59;2613629;36;19951;-53
2022/08/07 02:36:47;;;;;;;;;;;;;;;12.37;100.00;102648.88;2613232;36;19979;-49
2022/08/07 02:39:15;;;;;;;;;;;;;;;12.25;100.00;102647.88;2613704;36;19950;-51
2022/08/07 02:41:43;;;;;;;;;;;;;;;12.16;100.00;102648.50;2611012;36;19979;-50
2022/08/07 02:44:13;;;;;;;;;;;;;;;12.17;100.00;102650.22;2611022;36;19954;-49
2022/08/07 02:46:43;;;;;;;;;;;;;;;12.19;100.00;102648.28;2611545;36;19994;-48
2022/08/07 02:49:12;;;;;;;;;;;;;;;12.20;100.00;102639.19;2611515;36;19962;-47
2022/08/07 02:51:40;;;;;;;;;;;;;;;12.12;100.00;102641.56;2611194;36;19946;-49
2022/08/07 02:54:10;;;;;;;;;;;;;;;12.19;100.00;102642.91;2610944;36;19999;-49
2022/08/07 02:56:40;;;;;;;;;;;;;;;12.21;100.00;102640.94;2611549;36;19950;-50
2022/08/07 02:59:11;;;;;;;;;;;;;;;12.18;100.00;102637.59;2611487;36;20015;-48
2022/08/07 03:01:40;;;;;;;;;;;;;;;12.18;100.00;102633.06;2611242;36;20079;-51
2022/08/07 03:04:11;;;;;;;;;;;;;;;12.17;100.00;102638.56;2611166;31;19986;-49
2022/08/07 03:06:40;;;;;;;;;;;;;;;12.24;100.00;102640.72;2611244;36;19950;-47
2022/08/07 03:09:09;;;;;;;;;;;;;;;12.20;100.00;102638.34;2611569;36;19973;-47
2022/08/07 03:11:38;;;;;;;;;;;;;;;12.17;100.00;102644.81;2612009;36;19961;-48
2022/08/07 03:14:07;;;;;;;;;;;;;;;12.19;100.00;102637.50;2611125;31;19973;-51
2022/08/07 03:16:36;;;;;;;;;;;;;;;12.06;100.00;102645.53;2611596;36;19957;-50
2022/08/07 03:19:04;;;;;;;;;;;;;;;12.04;100.00;102643.91;2611749;36;20428;-46
2022/08/07 03:21:35;;;;;;;;;;;;;;;12.00;100.00;102642.38;2611767;36;19981;-50
2022/08/07 03:24:04;;;;;;;;;;;;;;;11.96;100.00;102640.88;2611971;36;20359;-51
2022/08/07 03:26:33;;;;;;;;;;;;;;;11.90;100.00;102632.16;2611840;36;20402;-47
2022/08/07 03:29:03;;;;;;;;;;;;;;;11.85;100.00;102634.31;2611421;36;19988;-47
2022/08/07 03:31:32;;;;;;;;;;;;;;;11.84;100.00;102637.97;2611604;36;19951;-47
2022/08/07 03:34:02;;;;;;;;;;;;;;;11.74;100.00;102642.22;2612074;36;19961;-46
2022/08/07 03:36:31;;;;;;;;;;;;;;;11.71;100.00;102637.91;2611718;36;19947;-46
2022/08/07 03:39:04;;;;;;;;;;;;;;;11.68;100.00;102637.25;2611541;36;19982;-46
2022/08/07 03:41:33;;;;;;;;;;;;;;;11.69;100.00;102633.56;2612013;36;20010;-48
2022/08/07 03:44:02;;;;;;;;;;;;;;;11.66;100.00;102636.44;2612359;36;19962;-51
2022/08/07 03:46:31;;;;;;;;;;;;;;;11.68;100.00;102638.09;2612767;36;19946;-48
2022/08/07 03:48:59;;;;;;;;;;;;;;;11.65;100.00;102643.69;2612121;36;19951;-49
2022/08/07 03:51:28;;;;;;;;;;;;;;;11.57;100.00;102630.72;2613747;36;20411;-46
2022/08/07 03:53:56;;;;;;;;;;;;;;;11.57;100.00;102646.00;2612738;36;19957;-47
2022/08/07 03:56:26;;;;;;;;;;;;;;;11.56;100.00;102634.38;2613561;36;19975;-47
2022/08/07 03:58:54;;;;;;;;;;;;;;;11.64;100.00;102627.59;2611560;36;19946;-49
2022/08/07 04:01:24;;;;;;;;;;;;;;;11.65;100.00;102626.66;2612166;36;19954;-50
2022/08/07 04:03:52;;;;;;;;;;;;;;;11.62;100.00;102624.16;2613913;36;20383;-47
2022/08/07 04:06:20;;;;;;;;;;;;;;;11.63;100.00;102623.16;2613463;36;19946;-48
2022/08/07 04:08:49;;;;;;;;;;;;;;;11.58;100.00;102634.25;2611888;36;19962;-46
2022/08/07 04:11:17;;;;;;;;;;;;;;;11.65;100.00;102632.03;2611675;36;19962;-50
2022/08/07 04:13:48;;;;;;;;;;;;;;;11.57;100.00;102633.41;2611594;36;19989;-53
2022/08/07 04:16:16;;;;;;;;;;;;;;;11.54;100.00;102636.31;2611764;36;19950;-52
2022/08/07 04:18:44;;;;;;;;;;;;;;;11.53;100.00;102631.00;2611622;36;19969;-48
2022/08/07 04:21:12;;;;;;;;;;;;;;;11.56;100.00;102634.38;2611855;36;19973;-49
2022/08/07 04:23:40;;;;;;;;;;;;;;;11.57;100.00;102636.09;2611380;36;19958;-49
2022/08/07 04:26:08;;;;;;;;;;;;;;;11.67;100.00;102641.75;2611165;36;19950;-47
2022/08/07 04:28:36;;;;;;;;;;;;;;;11.67;100.00;102635.50;2611967;36;19974;-47
2022/08/07 04:31:07;;;;;;;;;;;;;;;11.57;100.00;102646.00;2614438;36;19954;-46
2022/08/07 04:33:36;;;;;;;;;;;;;;;11.49;100.00;102638.41;2614702;36;19969;-51
2022/08/07 04:36:04;;;;;;;;;;;;;;;11.49;100.00;102642.94;2615524;36;20909;-48
2022/08/07 04:38:33;;;;;;;;;;;;;;;11.52;100.00;102648.16;2615207;36;19951;-47
2022/08/07 04:41:01;;;;;;;;;;;;;;;11.52;100.00;102638.22;2615149;36;19950;-49
2022/08/07 04:43:31;;;;;;;;;;;;;;;11.56;100.00;102645.16;2613692;36;19950;-47
2022/08/07 04:46:04;;;;;;;;;;;;;;;11.61;100.00;102646.69;2614562;36;20436;-46
2022/08/07 04:48:43;;;;;;;;;;;;;;;11.66;100.00;102642.72;2614384;31;19950;-47
2022/08/07 04:51:16;;;;;;;;;;;;;;;11.63;100.00;102655.53;2614789;31;20562;-47
2022/08/07 04:53:47;;;;;;;;;;;;;;;11.62;100.00;102659.22;2615320;36;20351;-47
2022/08/07 04:56:19;;;;;;;;;;;;;;;11.61;100.00;102657.47;2614066;36;19957;-48
2022/08/07 04:58:50;;;;;;;;;;;;;;;11.70;100.00;102660.47;2614760;36;19977;-47
2022/08/07 05:01:21;;;;;;;;;;;;;;;11.75;100.00;102650.22;2615281;31;19947;-49
2022/08/07 05:03:56;;;;;;;;;;;;;;;11.76;100.00;102653.78;2615408;31;19997;-47
2022/08/07 05:06:27;;;;;;;;;;;;;;;11.81;100.00;102650.81;2614663;36;20821;-48
2022/08/07 05:08:58;;;;;;;;;;;;;;;11.84;100.00;102648.75;2614657;36;20412;-45
2022/08/07 05:11:29;;;;;;;;;;;;;;;11.87;100.00;102647.69;2614712;36;19951;-50
2022/08/07 05:14:01;;;;;;;;;;;;;;;11.91;100.00;102652.78;2614795;36;19973;-48
2022/08/07 05:16:31;;;;;;;;;;;;;;;12.01;100.00;102654.91;2614851;36;20001;-52
2022/08/07 05:19:05;;;;;;;;;;;;;;;12.08;100.00;102657.09;2614779;36;19962;-48
2022/08/07 05:21:34;;;;;;;;;;;;;;;12.19;100.00;102651.00;2615665;36;19946;-47
2022/08/07 05:24:03;;;;;;;;;;;;;;;12.29;100.00;102669.25;2615478;36;19954;-47
2022/08/07 05:26:34;;;;;;;;;;;;;;;12.38;100.00;102664.13;2615069;36;19959;-49
2022/08/07 05:29:03;;;;;;;;;;;;;;;12.30;100.00;102652.09;2615330;36;19988;-47
2022/08/07 05:31:33;;;;;;;;;;;;;;;12.41;100.00;102653.09;2614615;36;19950;-47
2022/08/07 05:34:04;;;;;;;;;;;;;;;12.46;100.00;102660.91;2614906;36;19950;-46
2022/08/07 05:36:33;;;;;;;;;;;;;;;12.52;100.00;102655.06;2614419;36;19977;-48
2022/08/07 05:39:02;;;;;;;;;;;;;;;12.59;100.00;102653.69;2615400;36;20479;-48
2022/08/07 05:41:30;;;;;;;;;;;;;;;12.68;100.00;102659.44;2614849;36;20488;-47
2022/08/07 05:43:59;;;;;;;;;;;;;;;12.73;100.00;102658.13;2615654;36;20467;-49
2022/08/07 05:46:27;;;;;;;;;;;;;;;12.88;100.00;102656.22;2614853;36;20371;-47
2022/08/07 05:48:55;;;;;;;;;;;;;;;12.96;100.00;102656.53;2614386;36;19946;-47
2022/08/07 05:51:26;;;;;;;;;;;;;;;13.07;100.00;102660.31;2615461;31;20448;-48
2022/08/07 05:53:54;;;;;;;;;;;;;;;13.18;100.00;102673.94;2615649;31;19993;-46
2022/08/07 05:56:22;;;;;;;;;;;;;;;13.26;100.00;102666.13;2615314;36;20321;-46
2022/08/07 05:58:51;;;;;;;;;;;;;;;13.37;100.00;102665.41;2614987;36;20439;-46
2022/08/07 06:01:20;;;;;;;;;;;;;;;13.51;100.00;102661.72;2615362;36;20427;-47
2022/08/07 06:03:50;;;;;;;;;;;;;;;13.61;100.00;102656.50;2615125;36;19947;-48
2022/08/07 06:06:18;;;;;;;;;;;;;;;13.78;100.00;102661.53;2615668;31;20002;-48
2022/08/07 06:08:50;;;;;;;;;;;;;;;13.86;100.00;102666.38;2615699;36;20352;-50
2022/08/07 06:11:18;;;;;;;;;;;;;;;13.87;100.00;102660.00;2615616;31;20523;-48
2022/08/07 06:13:47;;;;;;;;;;;;;;;13.94;100.00;102668.50;2614667;36;20424;-48
2022/08/07 06:16:16;;;;;;;;;;;;;;;14.02;100.00;102661.56;2613625;31;19959;-50
2022/08/07 06:18:44;;;;;;;;;;;;;;;14.05;100.00;102662.31;2614759;36;20448;-49
2022/08/07 06:21:13;;;;;;;;;;;;;;;14.12;100.00;102669.88;2615303;36;19966;-49
2022/08/07 06:23:41;;;;;;;;;;;;;;;14.23;100.00;102658.22;2616332;31;20435;-49
2022/08/07 06:26:13;;;;;;;;;;;;;;;14.34;100.00;102657.41;2615071;36;20604;-48
2022/08/07 06:28:51;;;;;;;;;;;;;;;14.50;100.00;102667.91;2614985;31;19946;-48
2022/08/07 06:31:19;;;;;;;;;;;;;;;14.76;100.00;102667.81;2614092;36;19951;-50
2022/08/07 06:33:47;;;;;;;;;;;;;;;14.92;100.00;102667.47;2614679;36;19982;-48
2022/08/07 06:36:16;;;;;;;;;;;;;;;15.08;100.00;102662.56;2615331;36;20379;-47
2022/08/07 06:38:44;;;;;;;;;;;;;;;15.16;100.00;102661.94;2614371;36;19943;-49
2022/08/07 06:41:19;;;;;;;;;;;;;;;15.32;100.00;102661.59;2613902;36;19947;-50
2022/08/07 06:43:48;;;;;;;;;;;;;;;15.49;100.00;102676.50;2613955;36;19974;-48
2022/08/07 06:46:16;;;;;;;;;;;;;;;15.88;100.00;102668.84;2614649;36;20875;-51
2022/08/07 06:48:45;;;;;;;;;;;;;;;16.31;100.00;102665.25;2613124;36;19950;-47
2022/08/07 06:51:16;;;;;;;;;;;;;;;16.61;100.00;102663.66;2614541;36;19946;-47
2022/08/07 06:53:44;;;;;;;;;;;;;;;16.99;100.00;102668.50;2614217;36;19954;-47
2022/08/07 06:56:16;;;;;;;;;;;;;;;16.94;100.00;102669.91;2613524;36;19946;-50
2022/08/07 06:58:45;;;;;;;;;;;;;;;17.26;100.00;102658.06;2613895;36;19938;-48
2022/08/07 07:01:15;;;;;;;;;;;;;;;17.66;100.00;102665.34;2615037;36;19939;-48
2022/08/07 07:03:43;;;;;;;;;;;;;;;17.50;100.00;102661.31;2614652;31;19981;-48
2022/08/07 07:06:12;;;;;;;;;;;;;;;17.98;100.00;102665.19;2615128;36;20383;-48
2022/08/07 07:08:40;;;;;;;;;;;;;;;18.21;100.00;102660.34;2614821;31;19946;-47
2022/08/07 07:11:08;;;;;;;;;;;;;;;18.40;100.00;102647.69;2615306;36;19946;-51
2022/08/07 07:13:40;;;;;;;;;;;;;;;18.40;100.00;102653.16;2614683;36;19981;-52
2022/08/07 07:16:10;;;;;;;;;;;;;;;18.63;100.00;102655.59;2615596;36;19950;-50
2022/08/07 07:18:42;;;;;;;;;;;;;;;18.72;100.00;102668.34;2614240;36;19954;-56
2022/08/07 07:21:14;;;;;;;;;;;;;;;18.80;100.00;102668.47;2615463;31;19946;-49
2022/08/07 07:23:42;;;;;;;;;;;;;;;18.87;100.00;102661.47;2614968;36;19953;-50
2022/08/07 07:26:15;;;;;;;;;;;;;;;19.04;100.00;102667.16;2615443;36;19953;-50
2022/08/07 07:28:48;;;;;;;;;;;;;;;18.73;100.00;102665.47;2614433;36;19950;-49
2022/08/07 07:31:17;;;;;;;;;;;;;;;18.70;100.00;102664.91;2615328;36;20348;-52
2022/08/07 07:33:48;;;;;;;;;;;;;;;19.23;100.00;102655.31;2616890;36;19997;-49
2022/08/07 07:36:16;;;;;;;;;;;;;;;19.46;100.00;102655.78;2614293;36;20049;-49
2022/08/07 07:38:45;;;;;;;;;;;;;;;19.69;100.00;102660.84;2614924;31;20321;-48
2022/08/07 07:41:13;;;;;;;;;;;;;;;19.91;100.00;102659.59;2614982;36;20363;-47
2022/08/07 07:43:44;;;;;;;;;;;;;;;19.95;100.00;102652.81;2614148;36;19946;-47
2022/08/07 07:46:16;;;;;;;;;;;;;;;19.74;100.00;102653.06;2615080;36;20340;-47
2022/08/07 07:48:45;;;;;;;;;;;;;;;19.69;100.00;102649.94;2613416;36;19946;-50
2022/08/07 07:51:14;;;;;;;;;;;;;;;19.66;100.00;102655.69;2614319;36;20344;-47
2022/08/07 07:53:44;;;;;;;;;;;;;;;19.64;100.00;102647.66;2614744;36;19950;-48
2022/08/07 07:56:14;;;;;;;;;;;;;;;19.93;100.00;102646.63;2613458;31;20513;-47
2022/08/07 07:58:43;;;;;;;;;;;;;;;20.10;100.00;102642.22;2614823;36;19942;-46
2022/08/07 08:01:12;;;;;;;;;;;;;;;20.25;100.00;102637.91;2615614;36;20371;-49
2022/08/07 08:03:44;;;;;;;;;;;;;;;20.27;100.00;102633.16;2614517;36;19975;-49
2022/08/07 08:06:13;;;;;;;;;;;;;;;20.27;100.00;102638.63;2614190;31;20001;-50
2022/08/07 08:08:43;;;;;;;;;;;;;;;20.18;100.00;102631.34;2615187;31;20388;-49
2022/08/07 08:11:12;;;;;;;;;;;;;;;20.28;100.00;102636.72;2614236;36;19947;-49
2022/08/07 08:13:42;;;;;;;;;;;;;;;20.52;100.00;102635.22;2614622;36;19954;-49
2022/08/07 08:16:11;;;;;;;;;;;;;;;20.84;100.00;102631.91;2613659;36;19954;-53
2022/08/07 08:18:39;;;;;;;;;;;;;;;20.97;100.00;102629.59;2613511;36;19950;-49
2022/08/07 08:27:03;;;;;;;;;;;;;;;21.13;100.00;102634.28;2614201;36;19989;-47
2022/08/07 08:29:20;;;;;;;;;;;;;;;21.21;100.00;102632.63;2615632;36;19974;-51
2022/08/07 08:31:48;;;;;;;;;;;;;;;20.95;100.00;102631.63;2614418;36;19950;-50
2022/08/07 08:34:20;;;;;;;;;;;;;;;20.95;100.00;102631.63;2615342;36;19958;-51
2022/08/07 08:36:51;;;;;;;;;;;;;;;20.99;100.00;102626.69;2614982;36;19981;-50
2022/08/07 08:39:21;;;;;;;;;;;;;;;20.86;100.00;102620.78;2615675;31;20525;-48
2022/08/07 08:41:53;;;;;;;;;;;;;;;21.43;100.00;102618.34;2614278;36;19977;-48
2022/08/07 08:44:25;;;;;;;;;;;;;;;21.83;100.00;102613.19;2615212;31;19946;-49
2022/08/07 08:46:57;;;;;;;;;;;;;;;21.80;100.00;102619.84;2614656;36;19973;-52
2022/08/07 08:49:33;;;;;;;;;;;;;;;21.82;99.76;102605.97;2615512;36;20072;-51
2022/08/07 08:52:07;;;;;;;;;;;;;;;21.48;100.00;102604.13;2614824;36;19954;-50
2022/08/07 08:54:40;;;;;;;;;;;;;;;21.72;100.00;102605.28;2615228;36;19998;-47
2022/08/07 08:57:09;;;;;;;;;;;;;;;21.76;100.00;102606.66;2614258;31;19951;-50
2022/08/07 08:59:45;;;;;;;;;;;;;;;22.00;100.00;102600.38;2615151;36;19950;-48
2022/08/07 09:02:20;;;;;;;;;;;;;;;21.96;100.00;102599.00;2613304;31;20364;-49
2022/08/07 09:04:56;;;;;;;;;;;;;;;21.92;98.67;102598.44;2616293;31;20392;-51
2022/08/07 09:07:33;;;;;;;;;;;;;;;21.64;85.69;102597.88;2617040;54;19942;-51
2022/08/07 09:10:02;;;;;;;;;;;;;;;21.93;85.01;102591.94;2612106;36;19973;-49
2022/08/07 09:12:38;;;;;;;;;;;;;;;21.88;86.16;102602.59;2614939;36;19950;-50
2022/08/07 09:15:13;;;;;;;;;;;;;;;21.40;90.54;102601.38;2615554;36;19975;-49
2022/08/07 09:17:45;;;;;;;;;;;;;;;22.11;84.51;102593.69;2615957;31;19939;-49
2022/08/07 09:20:18;;;;;;;;;;;;;;;22.40;81.34;102593.19;2614548;36;19957;-47
2022/08/07 09:22:55;;;;;;;;;;;;;;;22.29;98.31;102591.66;2615335;36;20332;-49
2022/08/07 09:25:26;;;;;;;;;;;;;;;22.55;86.04;102602.44;2613728;31;19977;-50
2022/08/07 09:27:59;;;;;;;;;;;;;;;22.87;88.24;102600.66;2614891;36;19946;-51
2022/08/07 09:30:29;;;;;;;;;;;;;;;22.78;82.46;102598.13;2613970;36;20036;-48
2022/08/07 09:33:02;;;;;;;;;;;;;;;22.59;86.76;102597.47;2614337;36;19989;-49
2022/08/07 09:35:39;;;;;;;;;;;;;;;22.47;83.39;102602.47;2613894;36;19946;-48
2022/08/07 09:38:14;;;;;;;;;;;;;;;22.48;83.21;102601.44;2612630;36;20058;-50
2022/08/07 09:40:52;;;;;;;;;;;;;;;22.21;83.21;102606.19;2614304;36;20504;-52
2022/08/07 09:43:27;;;;;;;;;;;;;;;22.28;87.14;102603.63;2613150;36;19977;-51
2022/08/07 09:45:59;;;;;;;;;;;;;;;22.63;87.63;102598.84;2614245;36;20002;-50
2022/08/07 09:48:36;;;;;;;;;;;;;;;22.83;85.27;102599.31;2612931;36;19946;-50
2022/08/07 09:51:12;;;;;;;;;;;;;;;22.80;76.03;102596.06;2604832;36;20013;-49
2022/08/07 09:53:44;;;;;;;;;;;;;;;23.02;79.66;102597.19;2612930;36;20001;-48
2022/08/07 09:56:28;;;;;;;;;;;;;;;22.60;81.08;102590.97;2611535;36;19955;-50
2022/08/07 09:59:06;;;;;;;;;;;;;;;22.85;86.95;102590.88;2612403;36;19954;-47
2022/08/07 10:01:50;;;;;;;;;;;;;;;22.70;80.30;102588.00;2610563;36;19977;-48
2022/08/07 10:04:43;;;;;;;;;;;;;;;22.59;81.37;102588.41;2612307;36;20034;-49
2022/08/07 10:07:35;;;;;;;;;;;;;;;23.00;94.46;102583.66;2611482;36;19947;-49
2022/08/07 10:10:21;;;;;;;;;;;;;;;23.13;88.61;102588.63;2611289;36;19950;-47
2022/08/07 10:12:53;;;;;;;;;;;;;;;23.20;81.55;102584.13;2614713;36;19946;-52
2022/08/07 10:15:37;;;;;;;;;;;;;;;23.99;79.03;102572.16;2613653;36;20380;-48
2022/08/07 10:18:18;;;;;;;;;;;;;;;23.92;71.52;102568.44;2612960;31;19968;-47
2022/08/07 10:20:58;;;;;;;;;;;;;;;23.36;83.48;102566.69;2612915;36;20377;-48
2022/08/07 10:23:36;;;;;;;;;;;;;;;23.51;67.37;102560.44;2610861;36;19950;-51
2022/08/07 10:26:17;;;;;;;;;;;;;;;23.67;75.98;102565.81;2611219;36;19961;-53
2022/08/07 10:28:55;;;;;;;;;;;;;;;23.39;85.48;102560.84;2608960;36;19983;-48
2022/08/07 10:31:44;;;;;;;;;;;;;;;24.14;73.49;102548.34;2610899;36;20427;-51
2022/08/07 10:34:22;;;;;;;;;;;;;;;23.95;73.67;102552.44;2611159;36;19946;-50
2022/08/07 10:36:57;;;;;;;;;;;;;;;24.53;87.60;102553.78;2612771;36;19951;-49
2022/08/07 10:39:35;;;;;;;;;;;;;;;24.29;66.01;102539.22;2612529;36;19950;-46
2022/08/07 10:42:09;;;;;;;;;;;;;;;24.11;65.52;102537.66;2610073;36;19989;-54
2022/08/07 10:44:42;;;;;;;;;;;;;;;24.75;71.95;102532.75;2610589;36;19950;-49
2022/08/07 10:47:20;;;;;;;;;;;;;;;24.34;63.72;102536.78;2612457;36;19951;-51
2022/08/07 10:49:50;;;;;;;;;;;;;;;24.57;64.34;102536.72;2612471;36;20265;-53
2022/08/07 10:52:23;;;;;;;;;;;;;;;24.58;60.42;102535.66;2611369;36;19981;-49
2022/08/07 10:54:57;;;;;;;;;;;;;;;24.61;60.94;102534.47;2611358;36;19975;-52
2022/08/07 10:57:35;;;;;;;;;;;;;;;24.92;59.96;102533.44;2612341;36;19958;-53
2022/08/07 11:00:06;;;;;;;;;;;;;;;24.71;60.51;102528.69;2608751;36;19951;-50
2022/08/07 11:02:38;;;;;;;;;;;;;;;24.68;65.91;102509.81;2611503;36;20471;-51
2022/08/07 11:05:13;;;;;;;;;;;;;;;24.40;60.51;102516.78;2610587;36;19969;-50
2022/08/07 11:07:45;;;;;;;;;;;;;;;24.09;75.32;102508.66;2605858;36;19954;-50
2022/08/07 11:10:18;;;;;;;;;;;;;;;24.60;75.83;102507.97;2612915;36;20014;-51
2022/08/07 11:12:54;;;;;;;;;;;;;;;24.71;78.79;102506.66;2612653;36;20034;-49
2022/08/07 11:15:27;;;;;;;;;;;;;;;24.92;65.65;102505.88;2612049;36;20428;-51
2022/08/07 11:18:00;;;;;;;;;;;;;;;24.54;71.99;102503.22;2609993;36;19946;-50
2022/08/07 11:20:37;;;;;;;;;;;;;;;24.67;68.32;102506.19;2612346;36;19951;-49
2022/08/07 11:23:08;;;;;;;;;;;;;;;24.65;66.37;102509.13;2612714;36;20022;-49
2022/08/07 11:25:38;;;;;;;;;;;;;;;24.72;69.58;102497.34;2612505;31;19981;-48
2022/08/07 11:28:12;;;;;;;;;;;;;;;24.42;67.17;102500.91;2612081;36;19961;-51
2022/08/07 11:30:46;;;;;;;;;;;;;;;24.93;69.64;102502.09;2611983;36;20001;-49
2022/08/07 11:33:21;;;;;;;;;;;;;;;25.09;65.71;102507.38;2610862;36;19989;-49
2022/08/07 11:35:56;;;;;;;;;;;;;;;25.16;69.22;102501.94;2613233;36;19957;-54
2022/08/07 11:38:28;;;;;;;;;;;;;;;25.09;66.65;102501.00;2612087;36;19947;-50
2022/08/07 11:40:59;;;;;;;;;;;;;;;25.29;72.99;102501.25;2612798;36;19946;-52
2022/08/07 11:43:30;;;;;;;;;;;;;;;24.91;68.51;102498.66;2609885;31;20051;-48
2022/08/07 11:46:10;;;;;;;;;;;;;;;25.02;81.87;102490.75;2610944;36;19961;-50
2022/08/07 11:48:55;;;;;;;;;;;;;;;25.24;80.31;102489.97;2610764;36;20057;-51
2022/08/07 11:51:31;;;;;;;;;;;;;;;24.68;76.71;102485.03;2610476;36;19947;-55
2022/08/07 11:54:09;;;;;;;;;;;;;;;24.89;73.63;102490.59;2610835;36;19962;-54
2022/08/07 11:56:47;;;;;;;;;;;;;;;25.10;84.79;102477.91;2607998;36;19973;-57
2022/08/07 11:59:39;;;;;;;;;;;;;;;25.72;70.91;102468.19;2612723;36;19965;-55
2022/08/07 12:02:20;;;;;;;;;;;;;;;25.29;83.69;102477.28;2612944;36;19973;-53
2022/08/07 12:04:58;;;;;;;;;;;;;;;25.77;84.63;102471.22;2614138;36;20412;-52
2022/08/07 12:07:27;;;;;;;;;;;;;;;25.68;72.92;102466.91;2613149;36;20957;-58
2022/08/07 12:09:58;;;;;;;;;;;;;;;26.31;65.89;102469.78;2615137;36;19951;-55
2022/08/07 12:12:29;;;;;;;;;;;;;;;25.35;63.95;102478.44;2615612;36;19977;-63
2022/08/07 12:15:04;;;;;;;;;;;;;;;24.94;67.60;102470.72;2615132;36;19946;-56
2022/08/07 12:17:39;;;;;;;;;;;;;;;25.24;73.04;102467.94;2614278;31;20001;-53
2022/08/07 12:20:11;;;;;;;;;;;;;;;25.73;83.89;102464.41;2616074;31;20796;-57
2022/08/07 12:22:43;;;;;;;;;;;;;;;25.79;72.49;102457.25;2613812;36;19950;-51
2022/08/07 12:27:59;;;;;;;;;;;;;;;25.39;73.59;102463.22;2615629;31;19969;-57
2022/08/07 12:30:34;;;;;;;;;;;;;;;25.32;70.04;102470.56;2614112;36;20050;-54
2022/08/07 12:33:04;;;;;;;;;;;;;;;25.34;67.00;102476.75;2613293;31;19950;-58
2022/08/07 12:35:34;;;;;;;;;;;;;;;25.51;73.16;102469.06;2613372;36;19946;-52
2022/08/07 12:38:06;;;;;;;;;;;;;;;25.45;56.85;102462.44;2613675;36;19950;-52
2022/08/07 12:40:36;;;;;;;;;;;;;;;26.01;55.86;102466.38;2615472;36;20005;-55
2022/08/07 12:43:06;;;;;;;;;;;;;;;26.22;57.95;102465.44;2614200;36;20025;-55
2022/08/07 12:45:44;;;;;;;;;;;;;;;25.95;54.85;102476.25;2614606;36;19950;-53
2022/08/07 12:48:15;;;;;;;;;;;;;;;26.40;49.95;102465.78;2613498;36;20379;-60
2022/08/07 12:50:47;;;;;;;;;;;;;;;26.20;49.78;102470.31;2614008;36;20507;-55
2022/08/07 12:53:19;;;;;;;;;;;;;;;26.37;50.63;102466.19;2613485;36;19945;-55
2022/08/07 12:55:51;;;;;;;;;;;;;;;25.94;47.71;102460.78;2614763;36;19958;-57
2022/08/07 12:58:21;;;;;;;;;;;;;;;26.30;51.42;102465.31;2606193;36;19954;-56